Captain Michael — SVBF2 — position and weather

sailwx.info

Track history (hours):
 
Tides and Currents Weather Stations Pressure Air Temp Water Temp Dewpoint Dewpoint Depression Visibility Wind Speed Wind Dir Waves Ship Positions

Captain Michael

Last reported at 2018-May-02 14:38 UTC. Time now 2018-Jun-25 19:34 UTC.
Position N 32°26' W 117°37'.
Warning: this ship's position is 54 days out of date.

Length 274 m; draft 9 m.

Type: Tanker. MMSI: 241080000.

Date/timePositionNaut miles runAvg speedWind from/ knotsBaromVisibWave heightAir tempDewpointWater temp
2018-May-02 14:38N 32°26' W 117°37'1 7.9
2018-May-02 14:28N 32°28' W 117°38'4 7.7
2018-May-02 14:00N 32°31' W 117°38'4 7.8
2018-May-02 13:30N 32°35' W 117°39'4 7.7
2018-May-02 13:00N 32°39' W 117°41'4 7.7
2018-May-02 12:30N 32°42' W 117°43'4 7.6
2018-May-02 12:00N 32°45' W 117°45'4 7.8
2018-May-02 11:30N 32°49' W 117°47'4 7.9
2018-May-02 11:00N 32°52' W 117°50'4 7.9
2018-May-02 10:30N 32°56' W 117°52'4 7.7
2018-May-02 10:00N 32°59' W 117°54'4 8.0
2018-May-02 09:30N 33°03' W 117°56'4 8.2
2018-May-02 09:00N 33°06' W 117°58'4 8.2
2018-May-02 08:30N 33°10' W 118°01'4 8.1
2018-May-02 08:00N 33°14' W 118°03'4 8.2
2018-May-02 07:29N 33°18' W 118°05'22 7.9
2018-May-02 04:45N 33°38' W 118°12'2 7.8
2018-May-02 04:27N 33°41' W 118°12'3 6.5
2018-May-02 04:00N 33°44' W 118°11'2 4.2
2018-May-02 03:30N 33°45' W 118°13'0 0.2
2018-May-02 03:00N 33°45' W 118°13'0 0.0
2018-May-02 02:30N 33°45' W 118°13'0 0.0
2018-May-02 02:00N 33°45' W 118°13'0 0.0
2018-May-02 01:30N 33°45' W 118°13'0 0.0
2018-May-02 01:00N 33°45' W 118°13'0 0.0
2018-May-02 00:30N 33°45' W 118°13'0 0.0
2018-May-02 00:00N 33°45' W 118°13'0 0.0
2018-May-01 23:30N 33°45' W 118°13'0 0.0
2018-May-01 23:00N 33°45' W 118°13'0 0.0
2018-May-01 22:30N 33°45' W 118°13'0 0.0
2018-May-01 22:00N 33°45' W 118°13'0 0.0
2018-May-01 21:30N 33°45' W 118°13'0 0.0
2018-May-01 21:00N 33°45' W 118°13'0 0.0
2018-May-01 20:30N 33°45' W 118°13'0 0.0
2018-May-01 20:00N 33°45' W 118°13'0 0.0
2018-May-01 19:30N 33°45' W 118°13'0 0.0
2018-May-01 19:00N 33°45' W 118°13'0 0.0
2018-May-01 18:30N 33°45' W 118°13'0 0.0
2018-May-01 17:57N 33°45' W 118°13'0 0.0
2018-May-01 17:30N 33°45' W 118°13'0 0.0
2018-May-01 17:00N 33°45' W 118°13'0 0.0
2018-May-01 16:30N 33°45' W 118°13'0 0.0
2018-May-01 16:00N 33°45' W 118°13'0 0.0
2018-May-01 15:30N 33°45' W 118°13'0 0.0
2018-May-01 15:00N 33°45' W 118°13'0 0.0
2018-May-01 14:30N 33°45' W 118°13'0 0.0
2018-May-01 14:00N 33°45' W 118°13'0 0.0
2018-May-01 13:30N 33°45' W 118°13'0 0.0
2018-May-01 13:00N 33°45' W 118°13'0 0.0
2018-May-01 12:30N 33°45' W 118°13'0 0.0
2018-May-01 11:42N 33°45' W 118°13'0 0.0
2018-May-01 11:30N 33°45' W 118°13'0 0.0
2018-May-01 11:00N 33°45' W 118°13'0 0.0
2018-May-01 10:30N 33°45' W 118°13'0 0.0
2018-May-01 09:54N 33°45' W 118°13'0 0.0
2018-May-01 09:30N 33°45' W 118°13'0 0.0
2018-May-01 08:06N 33°45' W 118°13'0 0.0
2018-May-01 07:09N 33°45' W 118°13'0 0.0
2018-May-01 06:24N 33°45' W 118°13'0 0.0
2018-May-01 05:30N 33°45' W 118°13'0 0.0
2018-May-01 05:00N 33°45' W 118°13'0 0.0
2018-May-01 04:30N 33°45' W 118°13'0 0.0
2018-May-01 04:00N 33°45' W 118°13'0 0.0
2018-May-01 03:30N 33°45' W 118°13'0 0.0
2018-May-01 03:00N 33°45' W 118°13'0 0.0
2018-May-01 02:27N 33°45' W 118°13'0 0.0
2018-May-01 02:00N 33°45' W 118°13'0 0.0
2018-May-01 01:30N 33°45' W 118°13'0 0.0
2018-May-01 01:00N 33°45' W 118°13'1 2.0
2018-May-01 00:30N 33°44' W 118°13'2 4.0
2018-May-01 00:00N 33°43' W 118°12'0 0.2
2018-Apr-30 23:22N 33°43' W 118°12'0 0.0
2018-Apr-30 22:59N 33°43' W 118°12'0 0.1
2018-Apr-30 22:28N 33°43' W 118°12'0 0.1
2018-Apr-30 21:59N 33°43' W 118°12'0 0.0
2018-Apr-30 21:28N 33°43' W 118°12'0 0.0
2018-Apr-30 20:55N 33°43' W 118°12'0 0.0
2018-Apr-30 20:25N 33°43' W 118°12'0 0.1
2018-Apr-30 19:58N 33°43' W 118°12'0 0.1
2018-Apr-30 19:25N 33°43' W 118°12'0 0.1
2018-Apr-30 18:58N 33°43' W 118°12'0 0.0
2018-Apr-30 18:25N 33°43' W 118°12'0 0.0
2018-Apr-30 17:58N 33°43' W 118°12'0 0.1
2018-Apr-30 17:22N 33°43' W 118°12'0 0.1
2018-Apr-30 16:49N 33°43' W 118°12'0 0.0
2018-Apr-30 16:16N 33°43' W 118°12'0 0.2
2018-Apr-30 15:58N 33°43' W 118°12'0 0.1
2018-Apr-30 15:29N 33°43' W 118°12'0 0.0
2018-Apr-30 14:58N 33°43' W 118°12'0 0.0
2018-Apr-30 14:28N 33°43' W 118°12'0 0.0
2018-Apr-30 13:58N 33°43' W 118°12'0 0.0
2018-Apr-30 12:31N 33°43' W 118°12'0 0.1
2018-Apr-30 12:25N 33°43' W 118°12'0 0.0
2018-Apr-30 11:58N 33°43' W 118°12'0 0.1
2018-Apr-30 11:25N 33°43' W 118°12'0 0.1
2018-Apr-30 10:58N 33°43' W 118°12'0 0.0
2018-Apr-30 09:17N 33°43' W 118°12'0 0.0
2018-Apr-30 08:58N 33°43' W 118°12'0 0.0
2018-Apr-30 08:28N 33°43' W 118°12'0 0.0
2018-Apr-30 07:58N 33°43' W 118°12'0 0.0
2018-Apr-30 06:58N 33°43' W 118°12'0 0.1
2018-Apr-30 06:07N 33°43' W 118°12'0 0.0
2018-Apr-30 05:59N 33°43' W 118°12'0 0.1
2018-Apr-30 05:28N 33°43' W 118°12'0 0.0
2018-Apr-30 04:58N 33°43' W 118°12'0 0.0
2018-Apr-30 04:29N 33°43' W 118°12'0 0.1
2018-Apr-30 03:58N 33°43' W 118°12'0 0.0
2018-Apr-30 03:28N 33°43' W 118°12'0 0.0
2018-Apr-30 02:58N 33°43' W 118°12'0 0.0
2018-Apr-30 02:28N 33°43' W 118°12'0 0.0
2018-Apr-30 01:58N 33°43' W 118°12'0 0.0
2018-Apr-30 01:29N 33°43' W 118°12'0 0.0
2018-Apr-30 00:58N 33°43' W 118°12'0 0.0
2018-Apr-30 00:25N 33°43' W 118°12'0 0.0
2018-Apr-29 23:58N 33°43' W 118°12'0 0.0
2018-Apr-29 23:26N 33°43' W 118°12'0 0.0
2018-Apr-29 22:59N 33°43' W 118°12'0 0.0
2018-Apr-29 22:29N 33°43' W 118°12'0 0.1
2018-Apr-29 21:58N 33°43' W 118°12'0 0.0
2018-Apr-29 21:28N 33°43' W 118°12'0 0.1
2018-Apr-29 20:59N 33°43' W 118°12'0 0.0
2018-Apr-29 20:25N 33°43' W 118°12'0 0.1
2018-Apr-29 19:58N 33°43' W 118°12'0 0.1
2018-Apr-29 19:28N 33°43' W 118°12'0 0.1
2018-Apr-29 18:58N 33°43' W 118°12'0 0.3
2018-Apr-29 18:28N 33°43' W 118°12'0 0.4
2018-Apr-29 18:00N 33°43' W 118°12'1 2.8
2018-Apr-29 17:31N 33°44' W 118°11'1 1.9
2018-Apr-29 16:59N 33°44' W 118°10'0 0.1
2018-Apr-29 16:29N 33°44' W 118°10'0 0.1
2018-Apr-29 15:59N 33°44' W 118°10'0 0.0
2018-Apr-29 15:29N 33°44' W 118°10'0 0.1
2018-Apr-29 14:59N 33°44' W 118°10'0 0.0
2018-Apr-29 14:29N 33°44' W 118°10'0 0.0
2018-Apr-29 13:53N 33°44' W 118°10'0 0.1
2018-Apr-29 13:23N 33°44' W 118°09'0 0.1
2018-Apr-29 11:11N 33°44' W 118°09'0 0.0
2018-Apr-29 10:56N 33°44' W 118°09'0 0.1
2018-Apr-29 10:26N 33°44' W 118°09'0 0.0
2018-Apr-29 09:59N 33°44' W 118°09'0 0.0
2018-Apr-29 09:29N 33°44' W 118°09'0 0.0
2018-Apr-29 08:50N 33°44' W 118°09'0 0.0
2018-Apr-29 08:17N 33°44' W 118°09'0 0.0
2018-Apr-29 07:59N 33°44' W 118°09'0 0.0
2018-Apr-29 07:29N 33°44' W 118°09'0 0.0
2018-Apr-29 06:53N 33°44' W 118°09'0 0.0
2018-Apr-29 06:23N 33°44' W 118°09'0 0.1
2018-Apr-29 05:59N 33°44' W 118°09'0 0.1
2018-Apr-29 05:11N 33°44' W 118°09'0 0.1
2018-Apr-29 04:59N 33°44' W 118°09'0 0.1
2018-Apr-29 04:29N 33°44' W 118°09'0 0.0
2018-Apr-29 03:59N 33°44' W 118°09'0 0.0
2018-Apr-29 03:23N 33°44' W 118°09'0 0.1
2018-Apr-29 02:59N 33°44' W 118°09'0 0.0
2018-Apr-29 02:26N 33°44' W 118°09'0 0.0
2018-Apr-29 01:59N 33°44' W 118°09'0 0.0
2018-Apr-29 01:29N 33°44' W 118°09'0 0.0
2018-Apr-29 00:59N 33°44' W 118°09'0 0.0
2018-Apr-29 00:29N 33°44' W 118°09'0 0.0
2018-Apr-28 23:59N 33°44' W 118°09'0 0.0
2018-Apr-28 23:29N 33°44' W 118°09'0 0.1
2018-Apr-28 22:59N 33°44' W 118°09'0 0.0
2018-Apr-28 22:29N 33°44' W 118°09'0 0.0
2018-Apr-28 21:56N 33°44' W 118°09'0 0.0
2018-Apr-28 21:29N 33°44' W 118°09'0 0.0
2018-Apr-28 20:56N 33°44' W 118°09'0 0.0
2018-Apr-28 20:23N 33°44' W 118°09'0 0.0
2018-Apr-28 19:59N 33°44' W 118°09'0 0.1
2018-Apr-28 19:29N 33°44' W 118°09'0 0.1
2018-Apr-28 17:17N 33°44' W 118°10'0 0.0
2018-Apr-28 16:59N 33°44' W 118°10'0 0.0
2018-Apr-28 16:23N 33°44' W 118°10'0 0.0
2018-Apr-28 15:50N 33°44' W 118°10'0 0.0
2018-Apr-28 15:23N 33°44' W 118°10'0 0.1
2018-Apr-28 14:50N 33°44' W 118°09'0 0.0
2018-Apr-28 14:29N 33°44' W 118°09'0 0.1
2018-Apr-28 13:56N 33°44' W 118°09'0 0.0
2018-Apr-28 13:29N 33°44' W 118°09'0 0.1
2018-Apr-28 11:44N 33°44' W 118°09'0 0.0
2018-Apr-28 11:29N 33°44' W 118°09'0 0.0
2018-Apr-28 10:59N 33°44' W 118°09'0 0.0
2018-Apr-28 10:29N 33°44' W 118°09'0 0.0
2018-Apr-28 09:59N 33°44' W 118°09'0 0.0
2018-Apr-28 09:29N 33°44' W 118°09'0 0.0
2018-Apr-28 08:59N 33°44' W 118°09'0 0.0
2018-Apr-28 08:29N 33°44' W 118°09'0 0.1
2018-Apr-28 07:56N 33°44' W 118°09'0 0.1
2018-Apr-28 07:29N 33°44' W 118°09'0 0.0
2018-Apr-28 06:56N 33°44' W 118°09'0 0.1
2018-Apr-28 06:26N 33°44' W 118°09'0 0.1
2018-Apr-28 05:56N 33°44' W 118°09'0 0.0
2018-Apr-28 05:29N 33°44' W 118°09'0 0.1
2018-Apr-28 04:56N 33°44' W 118°09'0 0.0
2018-Apr-28 04:29N 33°44' W 118°09'0 0.0
2018-Apr-28 03:59N 33°44' W 118°09'0 0.1
2018-Apr-28 03:29N 33°44' W 118°09'0 0.0
2018-Apr-28 02:59N 33°44' W 118°09'0 0.1
2018-Apr-28 02:29N 33°44' W 118°09'0 0.1
2018-Apr-28 01:59N 33°44' W 118°09'0 0.0
2018-Apr-28 01:29N 33°44' W 118°09'0 0.0
2018-Apr-28 00:59N 33°44' W 118°09'0 0.0
2018-Apr-28 00:29N 33°44' W 118°09'0 0.0
2018-Apr-27 23:59N 33°44' W 118°09'0 0.0
2018-Apr-27 23:29N 33°44' W 118°09'0 0.0
2018-Apr-27 22:59N 33°44' W 118°09'0 0.0
2018-Apr-27 22:29N 33°44' W 118°09'0 0.0
2018-Apr-27 21:59N 33°44' W 118°09'0 0.0
2018-Apr-27 21:26N 33°44' W 118°09'0 0.0
2018-Apr-27 20:59N 33°44' W 118°09'0 0.0
2018-Apr-27 20:29N 33°44' W 118°09'0 0.0
2018-Apr-27 19:59N 33°44' W 118°09'0 0.0
2018-Apr-27 19:29N 33°44' W 118°09'0 0.0
2018-Apr-27 18:59N 33°44' W 118°09'0 0.0
2018-Apr-27 18:29N 33°44' W 118°09'0 0.0
2018-Apr-27 17:59N 33°44' W 118°09'0 0.0
2018-Apr-27 17:29N 33°44' W 118°09'0 0.0
2018-Apr-27 16:56N 33°44' W 118°09'0 0.1
2018-Apr-27 16:29N 33°44' W 118°09'0 0.0
2018-Apr-27 15:56N 33°44' W 118°09'0 0.0
2018-Apr-27 15:23N 33°44' W 118°09'0 0.0
2018-Apr-27 14:59N 33°44' W 118°09'0 0.0
2018-Apr-27 14:14N 33°44' W 118°09'0 0.0
2018-Apr-27 13:29N 33°44' W 118°09'0 0.0
2018-Apr-27 12:05N 33°44' W 118°09'0 0.1
2018-Apr-27 11:59N 33°44' W 118°09'0 0.0
2018-Apr-27 11:29N 33°44' W 118°09'0 0.0
2018-Apr-27 10:56N 33°44' W 118°09'0 0.1
2018-Apr-27 10:11N 33°44' W 118°09'0 0.3
2018-Apr-27 09:59N 33°44' W 118°09'0 0.1
2018-Apr-27 09:26N 33°44' W 118°09'0 0.0
2018-Apr-27 08:59N 33°44' W 118°09'0 0.0
2018-Apr-27 08:29N 33°44' W 118°09'0 0.0
2018-Apr-27 07:59N 33°44' W 118°09'0 0.0
2018-Apr-27 07:29N 33°44' W 118°09'0 0.0
2018-Apr-27 06:59N 33°44' W 118°09'0 0.0
2018-Apr-27 06:29N 33°44' W 118°09'0 0.0
2018-Apr-27 05:59N 33°44' W 118°09'0 0.0
2018-Apr-27 05:26N 33°44' W 118°09'0 0.0
2018-Apr-27 04:50N 33°44' W 118°09'0 0.1
2018-Apr-27 04:29N 33°44' W 118°09'0 0.1
2018-Apr-27 03:59N 33°44' W 118°09'0 0.0
2018-Apr-27 03:29N 33°44' W 118°09'0 0.0
2018-Apr-27 02:59N 33°44' W 118°09'0 0.0
2018-Apr-27 02:29N 33°44' W 118°09'0 0.0
2018-Apr-27 01:59N 33°44' W 118°09'0 0.0
2018-Apr-27 01:26N 33°44' W 118°09'0 0.0
2018-Apr-27 00:59N 33°44' W 118°09'0 0.0
2018-Apr-27 00:29N 33°44' W 118°09'0 0.0
2018-Apr-26 23:59N 33°44' W 118°09'0 0.0
2018-Apr-26 23:29N 33°44' W 118°09'0 0.1
2018-Apr-26 22:59N 33°44' W 118°09'0 0.0
2018-Apr-26 22:26N 33°44' W 118°09'0 0.0
2018-Apr-26 21:59N 33°44' W 118°09'0 0.0
2018-Apr-26 21:29N 33°44' W 118°09'0 0.0
2018-Apr-26 20:59N 33°44' W 118°09'0 0.0
2018-Apr-26 20:29N 33°44' W 118°09'0 0.0
2018-Apr-26 19:59N 33°44' W 118°09'0 0.0
2018-Apr-26 19:29N 33°44' W 118°09'0 0.0
2018-Apr-26 18:59N 33°44' W 118°09'0 0.0
2018-Apr-26 18:29N 33°44' W 118°09'0 0.0
2018-Apr-26 17:59N 33°44' W 118°09'0 0.0
2018-Apr-26 17:29N 33°44' W 118°09'0 0.0
2018-Apr-26 16:59N 33°44' W 118°09'0 0.0
2018-Apr-26 16:29N 33°44' W 118°09'0 0.0
2018-Apr-26 15:59N 33°44' W 118°09'0 0.0
2018-Apr-26 15:29N 33°44' W 118°09'0 0.0
2018-Apr-26 14:59N 33°44' W 118°09'0 0.0
2018-Apr-26 14:26N 33°44' W 118°09'0 0.0
2018-Apr-26 13:59N 33°44' W 118°09'0 0.0
2018-Apr-26 13:29N 33°44' W 118°09'0 0.0
2018-Apr-26 12:44N 33°44' W 118°09'0 0.0
2018-Apr-26 12:29N 33°44' W 118°09'0 0.0
2018-Apr-26 11:59N 33°44' W 118°09'0 0.0
2018-Apr-26 11:26N 33°44' W 118°09'0 0.0
2018-Apr-26 10:59N 33°44' W 118°09'0 0.1
2018-Apr-26 10:29N 33°44' W 118°09'0 0.0
2018-Apr-26 09:59N 33°44' W 118°09'0 0.0
2018-Apr-26 09:29N 33°44' W 118°09'0 0.0
2018-Apr-26 08:59N 33°44' W 118°09'0 0.1
2018-Apr-26 08:29N 33°44' W 118°09'0 0.0
2018-Apr-26 07:59N 33°44' W 118°09'0 0.0
2018-Apr-26 07:29N 33°44' W 118°09'0 0.0
2018-Apr-26 06:59N 33°44' W 118°09'0 0.0
2018-Apr-26 06:29N 33°44' W 118°09'0 0.0
2018-Apr-26 05:59N 33°44' W 118°09'0 0.0
2018-Apr-26 05:29N 33°44' W 118°09'0 0.0
2018-Apr-26 04:59N 33°44' W 118°09'0 0.1
2018-Apr-26 04:29N 33°44' W 118°09'0 0.1
2018-Apr-26 03:59N 33°44' W 118°09'0 0.0
2018-Apr-26 03:29N 33°44' W 118°09'0 0.0
2018-Apr-26 02:59N 33°44' W 118°09'0 0.1
2018-Apr-26 02:29N 33°44' W 118°09'0 0.1
2018-Apr-26 01:59N 33°44' W 118°09'0 0.0
2018-Apr-26 01:29N 33°44' W 118°09'0 0.0
2018-Apr-26 00:59N 33°44' W 118°09'0 0.1
2018-Apr-26 00:29N 33°44' W 118°09'0 0.1
2018-Apr-25 23:59N 33°44' W 118°09'0 0.1
2018-Apr-25 23:29N 33°44' W 118°09'0 0.0
2018-Apr-25 22:59N 33°44' W 118°09'0 0.0
2018-Apr-25 22:29N 33°44' W 118°09'0 0.1
2018-Apr-25 21:59N 33°44' W 118°09'0 0.1
2018-Apr-25 21:29N 33°44' W 118°09'0 0.0
2018-Apr-25 20:59N 33°44' W 118°09'0 0.1
2018-Apr-25 20:29N 33°44' W 118°09'0 0.0
2018-Apr-25 19:59N 33°44' W 118°09'0 0.1
2018-Apr-25 19:29N 33°44' W 118°09'0 0.0
2018-Apr-25 18:59N 33°44' W 118°09'0 0.0
2018-Apr-25 18:29N 33°44' W 118°09'0 0.0
2018-Apr-25 17:59N 33°44' W 118°09'0 0.0
2018-Apr-25 17:26N 33°44' W 118°09'0 0.0
2018-Apr-25 16:59N 33°44' W 118°09'0 0.0
2018-Apr-25 16:29N 33°44' W 118°09'0 0.0
2018-Apr-25 15:59N 33°44' W 118°09'0 0.0
2018-Apr-25 15:29N 33°44' W 118°09'0 0.0
2018-Apr-25 14:59N 33°44' W 118°09'0 0.0
2018-Apr-25 14:29N 33°44' W 118°09'0 0.0
2018-Apr-25 13:59N 33°44' W 118°09'0 0.0
2018-Apr-25 13:29N 33°44' W 118°09'0 0.0
2018-Apr-25 12:59N 33°44' W 118°09'0 0.0
2018-Apr-25 12:26N 33°44' W 118°09'0 0.0
2018-Apr-25 11:59N 33°44' W 118°09'0 0.0
2018-Apr-25 11:29N 33°44' W 118°09'0 0.0
2018-Apr-25 10:53N 33°44' W 118°09'0 0.0
2018-Apr-25 10:29N 33°44' W 118°09'0 0.0
2018-Apr-25 09:59N 33°44' W 118°09'0 0.0
2018-Apr-25 09:29N 33°44' W 118°09'0 0.0
2018-Apr-25 08:59N 33°44' W 118°09'0 0.1
2018-Apr-25 08:29N 33°44' W 118°09'0 0.0
2018-Apr-25 07:59N 33°44' W 118°09'0 0.0
2018-Apr-25 07:29N 33°44' W 118°09'0 0.1
2018-Apr-25 06:59N 33°44' W 118°09'0 0.0
2018-Apr-25 06:29N 33°44' W 118°09'0 0.0
2018-Apr-25 05:59N 33°44' W 118°09'0 0.0
2018-Apr-25 05:29N 33°44' W 118°09'0 0.1
2018-Apr-25 04:59N 33°44' W 118°09'0 0.1
2018-Apr-25 04:29N 33°44' W 118°09'0 0.0
2018-Apr-25 03:59N 33°44' W 118°09'0 0.0
2018-Apr-25 03:29N 33°44' W 118°09'0 0.0
2018-Apr-25 02:59N 33°44' W 118°09'0 0.0
2018-Apr-25 02:29N 33°44' W 118°09'0 0.0
2018-Apr-25 01:59N 33°44' W 118°09'0 0.0
2018-Apr-25 01:29N 33°44' W 118°09'0 0.1
2018-Apr-25 00:59N 33°44' W 118°09'0 0.1
2018-Apr-25 00:29N 33°44' W 118°09'0 0.0
2018-Apr-24 23:59N 33°44' W 118°09'0 0.0
2018-Apr-24 23:29N 33°44' W 118°09'0 0.0
2018-Apr-24 22:56N 33°44' W 118°09'0 0.0
2018-Apr-24 22:29N 33°44' W 118°09'0 0.1
2018-Apr-24 21:59N 33°44' W 118°09'0 0.0
2018-Apr-24 21:29N 33°44' W 118°09'0 0.0
2018-Apr-24 20:56N 33°44' W 118°09'0 0.0
2018-Apr-24 20:26N 33°44' W 118°09'0 0.0
2018-Apr-24 19:59N 33°44' W 118°09'0 0.0
2018-Apr-24 19:29N 33°44' W 118°09'0 0.0
2018-Apr-24 18:59N 33°44' W 118°09'0 0.0
2018-Apr-24 18:29N 33°44' W 118°09'0 0.0
2018-Apr-24 17:59N 33°44' W 118°09'0 0.0
2018-Apr-24 17:29N 33°44' W 118°09'0 0.0
2018-Apr-24 16:59N 33°44' W 118°09'0 0.0
2018-Apr-24 16:29N 33°44' W 118°09'0 0.0
2018-Apr-24 15:59N 33°44' W 118°09'0 0.0
2018-Apr-24 15:29N 33°44' W 118°09'0 0.0
2018-Apr-24 14:59N 33°44' W 118°09'0 0.0
2018-Apr-24 14:29N 33°44' W 118°09'0 0.0
2018-Apr-24 13:59N 33°44' W 118°09'0 0.0
2018-Apr-24 13:26N 33°44' W 118°09'0 0.1
2018-Apr-24 12:59N 33°44' W 118°09'0 0.1
2018-Apr-24 12:29N 33°44' W 118°09'0 0.0
2018-Apr-24 11:47N 33°44' W 118°09'0 0.0
2018-Apr-24 11:29N 33°44' W 118°09'0 0.0
2018-Apr-24 10:59N 33°44' W 118°09'0 0.0
2018-Apr-24 10:29N 33°44' W 118°09'0 0.1
2018-Apr-24 09:53N 33°44' W 118°09'0 0.0
2018-Apr-24 09:29N 33°44' W 118°09'0 0.0
2018-Apr-24 08:59N 33°44' W 118°09'0 0.0
2018-Apr-24 08:29N 33°44' W 118°09'0 0.0
2018-Apr-24 07:59N 33°44' W 118°09'0 0.0
2018-Apr-24 07:29N 33°44' W 118°09'0 0.0
2018-Apr-24 06:59N 33°44' W 118°09'0 0.1
2018-Apr-24 06:29N 33°44' W 118°09'0 0.0
2018-Apr-24 05:59N 33°44' W 118°09'0 0.0
2018-Apr-24 05:29N 33°44' W 118°09'0 0.1
2018-Apr-24 04:59N 33°44' W 118°09'0 0.0
2018-Apr-24 04:29N 33°44' W 118°09'0 0.0
2018-Apr-24 03:59N 33°44' W 118°09'0 0.1
2018-Apr-24 03:29N 33°44' W 118°09'0 0.0
2018-Apr-24 02:59N 33°44' W 118°09'0 0.0
2018-Apr-24 02:29N 33°44' W 118°09'0 0.0
2018-Apr-24 01:59N 33°44' W 118°09'0 0.0
2018-Apr-24 01:29N 33°44' W 118°09'0 0.0
2018-Apr-24 00:59N 33°44' W 118°09'0 0.0
2018-Apr-24 00:29N 33°44' W 118°09'0 0.1
2018-Apr-23 23:59N 33°44' W 118°09'0 0.0
2018-Apr-23 23:29N 33°44' W 118°09'0 0.0
2018-Apr-23 22:59N 33°44' W 118°09'0 0.0
2018-Apr-23 22:29N 33°44' W 118°09'0 0.1
2018-Apr-23 21:59N 33°44' W 118°09'0 0.0
2018-Apr-23 21:29N 33°44' W 118°09'0 0.0
2018-Apr-23 20:59N 33°44' W 118°09'0 0.1
2018-Apr-23 20:29N 33°44' W 118°09'0 0.1
2018-Apr-23 19:59N 33°44' W 118°09'0 0.0
2018-Apr-23 19:29N 33°44' W 118°09'0 0.0
2018-Apr-23 18:59N 33°44' W 118°09'0 0.0
2018-Apr-23 18:30N 33°44' W 118°09'0 0.0
2018-Apr-23 18:00N 33°44' W 118°09'0 0.0
2018-Apr-23 17:30N 33°44' W 118°09'0 0.0
2018-Apr-23 17:00N 33°44' W 118°09'0 0.0
2018-Apr-23 16:30N 33°44' W 118°09'0 0.0
2018-Apr-23 16:00N 33°44' W 118°09'0 0.0
2018-Apr-23 15:30N 33°44' W 118°09'0 0.0
2018-Apr-23 15:00N 33°44' W 118°09'0 0.0
2018-Apr-23 14:29N 33°44' W 118°09'0 0.0
2018-Apr-23 14:00N 33°44' W 118°09'0 0.0
2018-Apr-23 13:30N 33°44' W 118°09'0 0.1
2018-Apr-23 12:59N 33°44' W 118°09'0 0.1
2018-Apr-23 12:12N 33°44' W 118°09'0 0.1
2018-Apr-23 11:45N 33°44' W 118°09'0 0.0
2018-Apr-23 11:28N 33°44' W 118°09'0 0.1
2018-Apr-23 11:00N 33°44' W 118°09'0 0.0
2018-Apr-23 10:30N 33°44' W 118°09'0 0.1
2018-Apr-23 10:00N 33°44' W 118°09'0 0.1
2018-Apr-23 09:21N 33°44' W 118°09'0 0.0
2018-Apr-23 09:00N 33°44' W 118°09'0 0.1
2018-Apr-23 08:22N 33°44' W 118°10'0 0.0
2018-Apr-23 07:56N 33°44' W 118°10'0 0.0
2018-Apr-23 07:30N 33°44' W 118°10'0 0.0
2018-Apr-23 06:59N 33°44' W 118°10'0 0.1
2018-Apr-23 06:30N 33°44' W 118°10'1 2.7
2018-Apr-23 06:00N 33°44' W 118°11'2 4.2
2018-Apr-23 05:30N 33°45' W 118°13'0 0.4
2018-Apr-23 04:58N 33°45' W 118°13'0 0.0
2018-Apr-23 02:37N 33°45' W 118°13'0 0.0
2018-Apr-23 02:28N 33°45' W 118°13'0 0.0
2018-Apr-23 01:58N 33°45' W 118°13'0 0.0
2018-Apr-23 01:25N 33°45' W 118°13'0 0.0
2018-Apr-23 00:55N 33°45' W 118°13'0 0.0
2018-Apr-23 00:28N 33°45' W 118°13'0 0.0
2018-Apr-22 23:55N 33°45' W 118°13'0 0.0
2018-Apr-22 23:25N 33°45' W 118°13'0 0.0
2018-Apr-22 22:58N 33°45' W 118°13'0 0.0
2018-Apr-22 22:28N 33°45' W 118°13'0 0.0
2018-Apr-22 21:49N 33°45' W 118°13'0 0.0
2018-Apr-22 20:22N 33°45' W 118°13'0 0.0
2018-Apr-22 19:58N 33°45' W 118°13'0 0.0
2018-Apr-22 19:28N 33°45' W 118°13'0 0.0
2018-Apr-22 18:58N 33°45' W 118°13'0 0.0
2018-Apr-22 18:13N 33°45' W 118°13'0 0.0
2018-Apr-22 17:55N 33°45' W 118°13'0 0.0
2018-Apr-22 17:25N 33°45' W 118°13'0 0.0
2018-Apr-22 16:13N 33°45' W 118°13'0 0.0
2018-Apr-22 15:58N 33°45' W 118°13'0 0.0
2018-Apr-22 15:25N 33°45' W 118°13'0 0.0
2018-Apr-22 14:58N 33°45' W 118°13'  
Track history (hours):
 
Tides and Currents Weather Stations Pressure Air Temp Water Temp Dewpoint Dewpoint Depression Visibility Wind Speed Wind Dir Waves Ship Positions

Captain Michael

Last reported at 2018-May-02 14:38 UTC. Time now 2018-Jun-25 19:34 UTC.
Position N 32°26' W 117°37'.
Warning: this ship's position is 54 days out of date.

Length 274 m; draft 9 m.

Type: Tanker. MMSI: 241080000.

Date/timePositionNaut miles runAvg speedWind from/ knotsBaromVisibWave heightAir tempDewpointWater temp
2018-May-02 14:38N 32°26' W 117°37'1 7.9
2018-May-02 14:28N 32°28' W 117°38'4 7.7
2018-May-02 14:00N 32°31' W 117°38'4 7.8
2018-May-02 13:30N 32°35' W 117°39'4 7.7
2018-May-02 13:00N 32°39' W 117°41'4 7.7
2018-May-02 12:30N 32°42' W 117°43'4 7.6
2018-May-02 12:00N 32°45' W 117°45'4 7.8
2018-May-02 11:30N 32°49' W 117°47'4 7.9
2018-May-02 11:00N 32°52' W 117°50'4 7.9
2018-May-02 10:30N 32°56' W 117°52'4 7.7
2018-May-02 10:00N 32°59' W 117°54'4 8.0
2018-May-02 09:30N 33°03' W 117°56'4 8.2
2018-May-02 09:00N 33°06' W 117°58'4 8.2
2018-May-02 08:30N 33°10' W 118°01'4 8.1
2018-May-02 08:00N 33°14' W 118°03'4 8.2
2018-May-02 07:29N 33°18' W 118°05'22 7.9
2018-May-02 04:45N 33°38' W 118°12'2 7.8
2018-May-02 04:27N 33°41' W 118°12'3 6.5
2018-May-02 04:00N 33°44' W 118°11'2 4.2
2018-May-02 03:30N 33°45' W 118°13'0 0.2
2018-May-02 03:00N 33°45' W 118°13'0 0.0
2018-May-02 02:30N 33°45' W 118°13'0 0.0
2018-May-02 02:00N 33°45' W 118°13'0 0.0
2018-May-02 01:30N 33°45' W 118°13'0 0.0
2018-May-02 01:00N 33°45' W 118°13'0 0.0
2018-May-02 00:30N 33°45' W 118°13'0 0.0
2018-May-02 00:00N 33°45' W 118°13'0 0.0
2018-May-01 23:30N 33°45' W 118°13'0 0.0
2018-May-01 23:00N 33°45' W 118°13'0 0.0
2018-May-01 22:30N 33°45' W 118°13'0 0.0
2018-May-01 22:00N 33°45' W 118°13'0 0.0
2018-May-01 21:30N 33°45' W 118°13'0 0.0
2018-May-01 21:00N 33°45' W 118°13'0 0.0
2018-May-01 20:30N 33°45' W 118°13'0 0.0
2018-May-01 20:00N 33°45' W 118°13'0 0.0
2018-May-01 19:30N 33°45' W 118°13'0 0.0
2018-May-01 19:00N 33°45' W 118°13'0 0.0
2018-May-01 18:30N 33°45' W 118°13'0 0.0
2018-May-01 17:57N 33°45' W 118°13'0 0.0
2018-May-01 17:30N 33°45' W 118°13'0 0.0
2018-May-01 17:00N 33°45' W 118°13'0 0.0
2018-May-01 16:30N 33°45' W 118°13'0 0.0
2018-May-01 16:00N 33°45' W 118°13'0 0.0
2018-May-01 15:30N 33°45' W 118°13'0 0.0
2018-May-01 15:00N 33°45' W 118°13'0 0.0
2018-May-01 14:30N 33°45' W 118°13'0 0.0
2018-May-01 14:00N 33°45' W 118°13'0 0.0
2018-May-01 13:30N 33°45' W 118°13'0 0.0
2018-May-01 13:00N 33°45' W 118°13'0 0.0
2018-May-01 12:30N 33°45' W 118°13'0 0.0
2018-May-01 11:42N 33°45' W 118°13'0 0.0
2018-May-01 11:30N 33°45' W 118°13'0 0.0
2018-May-01 11:00N 33°45' W 118°13'0 0.0
2018-May-01 10:30N 33°45' W 118°13'0 0.0
2018-May-01 09:54N 33°45' W 118°13'0 0.0
2018-May-01 09:30N 33°45' W 118°13'0 0.0
2018-May-01 08:06N 33°45' W 118°13'0 0.0
2018-May-01 07:09N 33°45' W 118°13'0 0.0
2018-May-01 06:24N 33°45' W 118°13'0 0.0
2018-May-01 05:30N 33°45' W 118°13'0 0.0
2018-May-01 05:00N 33°45' W 118°13'0 0.0
2018-May-01 04:30N 33°45' W 118°13'0 0.0
2018-May-01 04:00N 33°45' W 118°13'0 0.0
2018-May-01 03:30N 33°45' W 118°13'0 0.0
2018-May-01 03:00N 33°45' W 118°13'0 0.0
2018-May-01 02:27N 33°45' W 118°13'0 0.0
2018-May-01 02:00N 33°45' W 118°13'0 0.0
2018-May-01 01:30N 33°45' W 118°13'0 0.0
2018-May-01 01:00N 33°45' W 118°13'1 2.0
2018-May-01 00:30N 33°44' W 118°13'2 4.0
2018-May-01 00:00N 33°43' W 118°12'0 0.2
2018-Apr-30 23:22N 33°43' W 118°12'0 0.0
2018-Apr-30 22:59N 33°43' W 118°12'0 0.1
2018-Apr-30 22:28N 33°43' W 118°12'0 0.1
2018-Apr-30 21:59N 33°43' W 118°12'0 0.0
2018-Apr-30 21:28N 33°43' W 118°12'0 0.0
2018-Apr-30 20:55N 33°43' W 118°12'0 0.0
2018-Apr-30 20:25N 33°43' W 118°12'0 0.1
2018-Apr-30 19:58N 33°43' W 118°12'0 0.1
2018-Apr-30 19:25N 33°43' W 118°12'0 0.1
2018-Apr-30 18:58N 33°43' W 118°12'0 0.0
2018-Apr-30 18:25N 33°43' W 118°12'0 0.0
2018-Apr-30 17:58N 33°43' W 118°12'0 0.1
2018-Apr-30 17:22N 33°43' W 118°12'0 0.1
2018-Apr-30 16:49N 33°43' W 118°12'0 0.0
2018-Apr-30 16:16N 33°43' W 118°12'0 0.2
2018-Apr-30 15:58N 33°43' W 118°12'0 0.1
2018-Apr-30 15:29N 33°43' W 118°12'0 0.0
2018-Apr-30 14:58N 33°43' W 118°12'0 0.0
2018-Apr-30 14:28N 33°43' W 118°12'0 0.0
2018-Apr-30 13:58N 33°43' W 118°12'0 0.0
2018-Apr-30 12:31N 33°43' W 118°12'0 0.1
2018-Apr-30 12:25N 33°43' W 118°12'0 0.0
2018-Apr-30 11:58N 33°43' W 118°12'0 0.1
2018-Apr-30 11:25N 33°43' W 118°12'0 0.1
2018-Apr-30 10:58N 33°43' W 118°12'0 0.0
2018-Apr-30 09:17N 33°43' W 118°12'0 0.0
2018-Apr-30 08:58N 33°43' W 118°12'0 0.0
2018-Apr-30 08:28N 33°43' W 118°12'0 0.0
2018-Apr-30 07:58N 33°43' W 118°12'0 0.0
2018-Apr-30 06:58N 33°43' W 118°12'0 0.1
2018-Apr-30 06:07N 33°43' W 118°12'0 0.0
2018-Apr-30 05:59N 33°43' W 118°12'0 0.1
2018-Apr-30 05:28N 33°43' W 118°12'0 0.0
2018-Apr-30 04:58N 33°43' W 118°12'0 0.0
2018-Apr-30 04:29N 33°43' W 118°12'0 0.1
2018-Apr-30 03:58N 33°43' W 118°12'0 0.0
2018-Apr-30 03:28N 33°43' W 118°12'0 0.0
2018-Apr-30 02:58N 33°43' W 118°12'0 0.0
2018-Apr-30 02:28N 33°43' W 118°12'0 0.0
2018-Apr-30 01:58N 33°43' W 118°12'0 0.0
2018-Apr-30 01:29N 33°43' W 118°12'0 0.0
2018-Apr-30 00:58N 33°43' W 118°12'0 0.0
2018-Apr-30 00:25N 33°43' W 118°12'0 0.0
2018-Apr-29 23:58N 33°43' W 118°12'0 0.0
2018-Apr-29 23:26N 33°43' W 118°12'0 0.0
2018-Apr-29 22:59N 33°43' W 118°12'0 0.0
2018-Apr-29 22:29N 33°43' W 118°12'0 0.1
2018-Apr-29 21:58N 33°43' W 118°12'0 0.0
2018-Apr-29 21:28N 33°43' W 118°12'0 0.1
2018-Apr-29 20:59N 33°43' W 118°12'0 0.0
2018-Apr-29 20:25N 33°43' W 118°12'0 0.1
2018-Apr-29 19:58N 33°43' W 118°12'0 0.1
2018-Apr-29 19:28N 33°43' W 118°12'0 0.1
2018-Apr-29 18:58N 33°43' W 118°12'0 0.3
2018-Apr-29 18:28N 33°43' W 118°12'0 0.4
2018-Apr-29 18:00N 33°43' W 118°12'1 2.8
2018-Apr-29 17:31N 33°44' W 118°11'1 1.9
2018-Apr-29 16:59N 33°44' W 118°10'0 0.1
2018-Apr-29 16:29N 33°44' W 118°10'0 0.1
2018-Apr-29 15:59N 33°44' W 118°10'0 0.0
2018-Apr-29 15:29N 33°44' W 118°10'0 0.1
2018-Apr-29 14:59N 33°44' W 118°10'0 0.0
2018-Apr-29 14:29N 33°44' W 118°10'0 0.0
2018-Apr-29 13:53N 33°44' W 118°10'0 0.1
2018-Apr-29 13:23N 33°44' W 118°09'0 0.1
2018-Apr-29 11:11N 33°44' W 118°09'0 0.0
2018-Apr-29 10:56N 33°44' W 118°09'0 0.1
2018-Apr-29 10:26N 33°44' W 118°09'0 0.0
2018-Apr-29 09:59N 33°44' W 118°09'0 0.0
2018-Apr-29 09:29N 33°44' W 118°09'0 0.0
2018-Apr-29 08:50N 33°44' W 118°09'0 0.0
2018-Apr-29 08:17N 33°44' W 118°09'0 0.0
2018-Apr-29 07:59N 33°44' W 118°09'0 0.0
2018-Apr-29 07:29N 33°44' W 118°09'0 0.0
2018-Apr-29 06:53N 33°44' W 118°09'0 0.0
2018-Apr-29 06:23N 33°44' W 118°09'0 0.1
2018-Apr-29 05:59N 33°44' W 118°09'0 0.1
2018-Apr-29 05:11N 33°44' W 118°09'0 0.1
2018-Apr-29 04:59N 33°44' W 118°09'0 0.1
2018-Apr-29 04:29N 33°44' W 118°09'0 0.0
2018-Apr-29 03:59N 33°44' W 118°09'0 0.0
2018-Apr-29 03:23N 33°44' W 118°09'0 0.1
2018-Apr-29 02:59N 33°44' W 118°09'0 0.0
2018-Apr-29 02:26N 33°44' W 118°09'0 0.0
2018-Apr-29 01:59N 33°44' W 118°09'0 0.0
2018-Apr-29 01:29N 33°44' W 118°09'0 0.0
2018-Apr-29 00:59N 33°44' W 118°09'0 0.0
2018-Apr-29 00:29N 33°44' W 118°09'0 0.0
2018-Apr-28 23:59N 33°44' W 118°09'0 0.0
2018-Apr-28 23:29N 33°44' W 118°09'0 0.1
2018-Apr-28 22:59N 33°44' W 118°09'0 0.0
2018-Apr-28 22:29N 33°44' W 118°09'0 0.0
2018-Apr-28 21:56N 33°44' W 118°09'0 0.0
2018-Apr-28 21:29N 33°44' W 118°09'0 0.0
2018-Apr-28 20:56N 33°44' W 118°09'0 0.0
2018-Apr-28 20:23N 33°44' W 118°09'0 0.0
2018-Apr-28 19:59N 33°44' W 118°09'0 0.1
2018-Apr-28 19:29N 33°44' W 118°09'0 0.1
2018-Apr-28 17:17N 33°44' W 118°10'0 0.0
2018-Apr-28 16:59N 33°44' W 118°10'0 0.0
2018-Apr-28 16:23N 33°44' W 118°10'0 0.0
2018-Apr-28 15:50N 33°44' W 118°10'0 0.0
2018-Apr-28 15:23N 33°44' W 118°10'0 0.1
2018-Apr-28 14:50N 33°44' W 118°09'0 0.0
2018-Apr-28 14:29N 33°44' W 118°09'0 0.1
2018-Apr-28 13:56N 33°44' W 118°09'0 0.0
2018-Apr-28 13:29N 33°44' W 118°09'0 0.1
2018-Apr-28 11:44N 33°44' W 118°09'0 0.0
2018-Apr-28 11:29N 33°44' W 118°09'0 0.0
2018-Apr-28 10:59N 33°44' W 118°09'0 0.0
2018-Apr-28 10:29N 33°44' W 118°09'0 0.0
2018-Apr-28 09:59N 33°44' W 118°09'0 0.0
2018-Apr-28 09:29N 33°44' W 118°09'0 0.0
2018-Apr-28 08:59N 33°44' W 118°09'0 0.0
2018-Apr-28 08:29N 33°44' W 118°09'0 0.1
2018-Apr-28 07:56N 33°44' W 118°09'0 0.1
2018-Apr-28 07:29N 33°44' W 118°09'0 0.0
2018-Apr-28 06:56N 33°44' W 118°09'0 0.1
2018-Apr-28 06:26N 33°44' W 118°09'0 0.1
2018-Apr-28 05:56N 33°44' W 118°09'0 0.0
2018-Apr-28 05:29N 33°44' W 118°09'0 0.1
2018-Apr-28 04:56N 33°44' W 118°09'0 0.0
2018-Apr-28 04:29N 33°44' W 118°09'0 0.0
2018-Apr-28 03:59N 33°44' W 118°09'0 0.1
2018-Apr-28 03:29N 33°44' W 118°09'0 0.0
2018-Apr-28 02:59N 33°44' W 118°09'0 0.1
2018-Apr-28 02:29N 33°44' W 118°09'0 0.1
2018-Apr-28 01:59N 33°44' W 118°09'0 0.0
2018-Apr-28 01:29N 33°44' W 118°09'0 0.0
2018-Apr-28 00:59N 33°44' W 118°09'0 0.0
2018-Apr-28 00:29N 33°44' W 118°09'0 0.0
2018-Apr-27 23:59N 33°44' W 118°09'0 0.0
2018-Apr-27 23:29N 33°44' W 118°09'0 0.0
2018-Apr-27 22:59N 33°44' W 118°09'0 0.0
2018-Apr-27 22:29N 33°44' W 118°09'0 0.0
2018-Apr-27 21:59N 33°44' W 118°09'0 0.0
2018-Apr-27 21:26N 33°44' W 118°09'0 0.0
2018-Apr-27 20:59N 33°44' W 118°09'0 0.0
2018-Apr-27 20:29N 33°44' W 118°09'0 0.0
2018-Apr-27 19:59N 33°44' W 118°09'0 0.0
2018-Apr-27 19:29N 33°44' W 118°09'0 0.0
2018-Apr-27 18:59N 33°44' W 118°09'0 0.0
2018-Apr-27 18:29N 33°44' W 118°09'0 0.0
2018-Apr-27 17:59N 33°44' W 118°09'0 0.0
2018-Apr-27 17:29N 33°44' W 118°09'0 0.0
2018-Apr-27 16:56N 33°44' W 118°09'0 0.1
2018-Apr-27 16:29N 33°44' W 118°09'0 0.0
2018-Apr-27 15:56N 33°44' W 118°09'0 0.0
2018-Apr-27 15:23N 33°44' W 118°09'0 0.0
2018-Apr-27 14:59N 33°44' W 118°09'0 0.0
2018-Apr-27 14:14N 33°44' W 118°09'0 0.0
2018-Apr-27 13:29N 33°44' W 118°09'0 0.0
2018-Apr-27 12:05N 33°44' W 118°09'0 0.1
2018-Apr-27 11:59N 33°44' W 118°09'0 0.0
2018-Apr-27 11:29N 33°44' W 118°09'0 0.0
2018-Apr-27 10:56N 33°44' W 118°09'0 0.1
2018-Apr-27 10:11N 33°44' W 118°09'0 0.3
2018-Apr-27 09:59N 33°44' W 118°09'0 0.1
2018-Apr-27 09:26N 33°44' W 118°09'0 0.0
2018-Apr-27 08:59N 33°44' W 118°09'0 0.0
2018-Apr-27 08:29N 33°44' W 118°09'0 0.0
2018-Apr-27 07:59N 33°44' W 118°09'0 0.0
2018-Apr-27 07:29N 33°44' W 118°09'0 0.0
2018-Apr-27 06:59N 33°44' W 118°09'0 0.0
2018-Apr-27 06:29N 33°44' W 118°09'0 0.0
2018-Apr-27 05:59N 33°44' W 118°09'0 0.0
2018-Apr-27 05:26N 33°44' W 118°09'0 0.0
2018-Apr-27 04:50N 33°44' W 118°09'0 0.1
2018-Apr-27 04:29N 33°44' W 118°09'0 0.1
2018-Apr-27 03:59N 33°44' W 118°09'0 0.0
2018-Apr-27 03:29N 33°44' W 118°09'0 0.0
2018-Apr-27 02:59N 33°44' W 118°09'0 0.0
2018-Apr-27 02:29N 33°44' W 118°09'0 0.0
2018-Apr-27 01:59N 33°44' W 118°09'0 0.0
2018-Apr-27 01:26N 33°44' W 118°09'0 0.0
2018-Apr-27 00:59N 33°44' W 118°09'0 0.0
2018-Apr-27 00:29N 33°44' W 118°09'0 0.0
2018-Apr-26 23:59N 33°44' W 118°09'0 0.0
2018-Apr-26 23:29N 33°44' W 118°09'0 0.1
2018-Apr-26 22:59N 33°44' W 118°09'0 0.0
2018-Apr-26 22:26N 33°44' W 118°09'0 0.0
2018-Apr-26 21:59N 33°44' W 118°09'0 0.0
2018-Apr-26 21:29N 33°44' W 118°09'0 0.0
2018-Apr-26 20:59N 33°44' W 118°09'0 0.0
2018-Apr-26 20:29N 33°44' W 118°09'0 0.0
2018-Apr-26 19:59N 33°44' W 118°09'0 0.0
2018-Apr-26 19:29N 33°44' W 118°09'0 0.0
2018-Apr-26 18:59N 33°44' W 118°09'0 0.0
2018-Apr-26 18:29N 33°44' W 118°09'0 0.0
2018-Apr-26 17:59N 33°44' W 118°09'0 0.0
2018-Apr-26 17:29N 33°44' W 118°09'0 0.0
2018-Apr-26 16:59N 33°44' W 118°09'0 0.0
2018-Apr-26 16:29N 33°44' W 118°09'0 0.0
2018-Apr-26 15:59N 33°44' W 118°09'0 0.0
2018-Apr-26 15:29N 33°44' W 118°09'0 0.0
2018-Apr-26 14:59N 33°44' W 118°09'0 0.0
2018-Apr-26 14:26N 33°44' W 118°09'0 0.0
2018-Apr-26 13:59N 33°44' W 118°09'0 0.0
2018-Apr-26 13:29N 33°44' W 118°09'0 0.0
2018-Apr-26 12:44N 33°44' W 118°09'0 0.0
2018-Apr-26 12:29N 33°44' W 118°09'0 0.0
2018-Apr-26 11:59N 33°44' W 118°09'0 0.0
2018-Apr-26 11:26N 33°44' W 118°09'0 0.0
2018-Apr-26 10:59N 33°44' W 118°09'0 0.1
2018-Apr-26 10:29N 33°44' W 118°09'0 0.0
2018-Apr-26 09:59N 33°44' W 118°09'0 0.0
2018-Apr-26 09:29N 33°44' W 118°09'0 0.0
2018-Apr-26 08:59N 33°44' W 118°09'0 0.1
2018-Apr-26 08:29N 33°44' W 118°09'0 0.0
2018-Apr-26 07:59N 33°44' W 118°09'0 0.0
2018-Apr-26 07:29N 33°44' W 118°09'0 0.0
2018-Apr-26 06:59N 33°44' W 118°09'0 0.0
2018-Apr-26 06:29N 33°44' W 118°09'0 0.0
2018-Apr-26 05:59N 33°44' W 118°09'0 0.0
2018-Apr-26 05:29N 33°44' W 118°09'0 0.0
2018-Apr-26 04:59N 33°44' W 118°09'0 0.1
2018-Apr-26 04:29N 33°44' W 118°09'0 0.1
2018-Apr-26 03:59N 33°44' W 118°09'0 0.0
2018-Apr-26 03:29N 33°44' W 118°09'0 0.0
2018-Apr-26 02:59N 33°44' W 118°09'0 0.1
2018-Apr-26 02:29N 33°44' W 118°09'0 0.1
2018-Apr-26 01:59N 33°44' W 118°09'0 0.0
2018-Apr-26 01:29N 33°44' W 118°09'0 0.0
2018-Apr-26 00:59N 33°44' W 118°09'0 0.1
2018-Apr-26 00:29N 33°44' W 118°09'0 0.1
2018-Apr-25 23:59N 33°44' W 118°09'0 0.1
2018-Apr-25 23:29N 33°44' W 118°09'0 0.0
2018-Apr-25 22:59N 33°44' W 118°09'0 0.0
2018-Apr-25 22:29N 33°44' W 118°09'0 0.1
2018-Apr-25 21:59N 33°44' W 118°09'0 0.1
2018-Apr-25 21:29N 33°44' W 118°09'0 0.0
2018-Apr-25 20:59N 33°44' W 118°09'0 0.1
2018-Apr-25 20:29N 33°44' W 118°09'0 0.0
2018-Apr-25 19:59N 33°44' W 118°09'0 0.1
2018-Apr-25 19:29N 33°44' W 118°09'0 0.0
2018-Apr-25 18:59N 33°44' W 118°09'0 0.0
2018-Apr-25 18:29N 33°44' W 118°09'0 0.0
2018-Apr-25 17:59N 33°44' W 118°09'0 0.0
2018-Apr-25 17:26N 33°44' W 118°09'0 0.0
2018-Apr-25 16:59N 33°44' W 118°09'0 0.0
2018-Apr-25 16:29N 33°44' W 118°09'0 0.0
2018-Apr-25 15:59N 33°44' W 118°09'0 0.0
2018-Apr-25 15:29N 33°44' W 118°09'0 0.0
2018-Apr-25 14:59N 33°44' W 118°09'0 0.0
2018-Apr-25 14:29N 33°44' W 118°09'0 0.0
2018-Apr-25 13:59N 33°44' W 118°09'0 0.0
2018-Apr-25 13:29N 33°44' W 118°09'0 0.0
2018-Apr-25 12:59N 33°44' W 118°09'0 0.0
2018-Apr-25 12:26N 33°44' W 118°09'0 0.0
2018-Apr-25 11:59N 33°44' W 118°09'0 0.0
2018-Apr-25 11:29N 33°44' W 118°09'0 0.0
2018-Apr-25 10:53N 33°44' W 118°09'0 0.0
2018-Apr-25 10:29N 33°44' W 118°09'0 0.0
2018-Apr-25 09:59N 33°44' W 118°09'0 0.0
2018-Apr-25 09:29N 33°44' W 118°09'0 0.0
2018-Apr-25 08:59N 33°44' W 118°09'0 0.1
2018-Apr-25 08:29N 33°44' W 118°09'0 0.0
2018-Apr-25 07:59N 33°44' W 118°09'0 0.0
2018-Apr-25 07:29N 33°44' W 118°09'0 0.1
2018-Apr-25 06:59N 33°44' W 118°09'0 0.0
2018-Apr-25 06:29N 33°44' W 118°09'0 0.0
2018-Apr-25 05:59N 33°44' W 118°09'0 0.0
2018-Apr-25 05:29N 33°44' W 118°09'0 0.1
2018-Apr-25 04:59N 33°44' W 118°09'0 0.1
2018-Apr-25 04:29N 33°44' W 118°09'0 0.0
2018-Apr-25 03:59N 33°44' W 118°09'0 0.0
2018-Apr-25 03:29N 33°44' W 118°09'0 0.0
2018-Apr-25 02:59N 33°44' W 118°09'0 0.0
2018-Apr-25 02:29N 33°44' W 118°09'0 0.0
2018-Apr-25 01:59N 33°44' W 118°09'0 0.0
2018-Apr-25 01:29N 33°44' W 118°09'0 0.1
2018-Apr-25 00:59N 33°44' W 118°09'0 0.1
2018-Apr-25 00:29N 33°44' W 118°09'0 0.0
2018-Apr-24 23:59N 33°44' W 118°09'0 0.0
2018-Apr-24 23:29N 33°44' W 118°09'0 0.0
2018-Apr-24 22:56N 33°44' W 118°09'0 0.0
2018-Apr-24 22:29N 33°44' W 118°09'0 0.1
2018-Apr-24 21:59N 33°44' W 118°09'0 0.0
2018-Apr-24 21:29N 33°44' W 118°09'0 0.0
2018-Apr-24 20:56N 33°44' W 118°09'0 0.0
2018-Apr-24 20:26N 33°44' W 118°09'0 0.0
2018-Apr-24 19:59N 33°44' W 118°09'0 0.0
2018-Apr-24 19:29N 33°44' W 118°09'0 0.0
2018-Apr-24 18:59N 33°44' W 118°09'0 0.0
2018-Apr-24 18:29N 33°44' W 118°09'0 0.0
2018-Apr-24 17:59N 33°44' W 118°09'0 0.0
2018-Apr-24 17:29N 33°44' W 118°09'0 0.0
2018-Apr-24 16:59N 33°44' W 118°09'0 0.0
2018-Apr-24 16:29N 33°44' W 118°09'0 0.0
2018-Apr-24 15:59N 33°44' W 118°09'0 0.0
2018-Apr-24 15:29N 33°44' W 118°09'0 0.0
2018-Apr-24 14:59N 33°44' W 118°09'0 0.0
2018-Apr-24 14:29N 33°44' W 118°09'0 0.0
2018-Apr-24 13:59N 33°44' W 118°09'0 0.0
2018-Apr-24 13:26N 33°44' W 118°09'0 0.1
2018-Apr-24 12:59N 33°44' W 118°09'0 0.1
2018-Apr-24 12:29N 33°44' W 118°09'0 0.0
2018-Apr-24 11:47N 33°44' W 118°09'0 0.0
2018-Apr-24 11:29N 33°44' W 118°09'0 0.0
2018-Apr-24 10:59N 33°44' W 118°09'0 0.0
2018-Apr-24 10:29N 33°44' W 118°09'0 0.1
2018-Apr-24 09:53N 33°44' W 118°09'0 0.0
2018-Apr-24 09:29N 33°44' W 118°09'0 0.0
2018-Apr-24 08:59N 33°44' W 118°09'0 0.0
2018-Apr-24 08:29N 33°44' W 118°09'0 0.0
2018-Apr-24 07:59N 33°44' W 118°09'0 0.0
2018-Apr-24 07:29N 33°44' W 118°09'0 0.0
2018-Apr-24 06:59N 33°44' W 118°09'0 0.1
2018-Apr-24 06:29N 33°44' W 118°09'0 0.0
2018-Apr-24 05:59N 33°44' W 118°09'0 0.0
2018-Apr-24 05:29N 33°44' W 118°09'0 0.1
2018-Apr-24 04:59N 33°44' W 118°09'0 0.0
2018-Apr-24 04:29N 33°44' W 118°09'0 0.0
2018-Apr-24 03:59N 33°44' W 118°09'0 0.1
2018-Apr-24 03:29N 33°44' W 118°09'0 0.0
2018-Apr-24 02:59N 33°44' W 118°09'0 0.0
2018-Apr-24 02:29N 33°44' W 118°09'0 0.0
2018-Apr-24 01:59N 33°44' W 118°09'0 0.0
2018-Apr-24 01:29N 33°44' W 118°09'0 0.0
2018-Apr-24 00:59N 33°44' W 118°09'0 0.0
2018-Apr-24 00:29N 33°44' W 118°09'0 0.1
2018-Apr-23 23:59N 33°44' W 118°09'0 0.0
2018-Apr-23 23:29N 33°44' W 118°09'0 0.0
2018-Apr-23 22:59N 33°44' W 118°09'0 0.0
2018-Apr-23 22:29N 33°44' W 118°09'0 0.1
2018-Apr-23 21:59N 33°44' W 118°09'0 0.0
2018-Apr-23 21:29N 33°44' W 118°09'0 0.0
2018-Apr-23 20:59N 33°44' W 118°09'0 0.1
2018-Apr-23 20:29N 33°44' W 118°09'0 0.1
2018-Apr-23 19:59N 33°44' W 118°09'0 0.0
2018-Apr-23 19:29N 33°44' W 118°09'0 0.0
2018-Apr-23 18:59N 33°44' W 118°09'0 0.0
2018-Apr-23 18:30N 33°44' W 118°09'0 0.0
2018-Apr-23 18:00N 33°44' W 118°09'0 0.0
2018-Apr-23 17:30N 33°44' W 118°09'0 0.0
2018-Apr-23 17:00N 33°44' W 118°09'0 0.0
2018-Apr-23 16:30N 33°44' W 118°09'0 0.0
2018-Apr-23 16:00N 33°44' W 118°09'0 0.0
2018-Apr-23 15:30N 33°44' W 118°09'0 0.0
2018-Apr-23 15:00N 33°44' W 118°09'0 0.0
2018-Apr-23 14:29N 33°44' W 118°09'0 0.0
2018-Apr-23 14:00N 33°44' W 118°09'0 0.0
2018-Apr-23 13:30N 33°44' W 118°09'0 0.1
2018-Apr-23 12:59N 33°44' W 118°09'0 0.1
2018-Apr-23 12:12N 33°44' W 118°09'0 0.1
2018-Apr-23 11:45N 33°44' W 118°09'0 0.0
2018-Apr-23 11:28N 33°44' W 118°09'0 0.1
2018-Apr-23 11:00N 33°44' W 118°09'0 0.0
2018-Apr-23 10:30N 33°44' W 118°09'0 0.1
2018-Apr-23 10:00N 33°44' W 118°09'0 0.1
2018-Apr-23 09:21N 33°44' W 118°09'0 0.0
2018-Apr-23 09:00N 33°44' W 118°09'0 0.1
2018-Apr-23 08:22N 33°44' W 118°10'0 0.0
2018-Apr-23 07:56N 33°44' W 118°10'0 0.0
2018-Apr-23 07:30N 33°44' W 118°10'0 0.0
2018-Apr-23 06:59N 33°44' W 118°10'0 0.1
2018-Apr-23 06:30N 33°44' W 118°10'1 2.7
2018-Apr-23 06:00N 33°44' W 118°11'2 4.2
2018-Apr-23 05:30N 33°45' W 118°13'0 0.4
2018-Apr-23 04:58N 33°45' W 118°13'0 0.0
2018-Apr-23 02:37N 33°45' W 118°13'0 0.0
2018-Apr-23 02:28N 33°45' W 118°13'0 0.0
2018-Apr-23 01:58N 33°45' W 118°13'0 0.0
2018-Apr-23 01:25N 33°45' W 118°13'0 0.0
2018-Apr-23 00:55N 33°45' W 118°13'0 0.0
2018-Apr-23 00:28N 33°45' W 118°13'0 0.0
2018-Apr-22 23:55N 33°45' W 118°13'0 0.0
2018-Apr-22 23:25N 33°45' W 118°13'0 0.0
2018-Apr-22 22:58N 33°45' W 118°13'0 0.0
2018-Apr-22 22:28N 33°45' W 118°13'0 0.0
2018-Apr-22 21:49N 33°45' W 118°13'0 0.0
2018-Apr-22 20:22N 33°45' W 118°13'0 0.0
2018-Apr-22 19:58N 33°45' W 118°13'0 0.0
2018-Apr-22 19:28N 33°45' W 118°13'0 0.0
2018-Apr-22 18:58N 33°45' W 118°13'0 0.0
2018-Apr-22 18:13N 33°45' W 118°13'0 0.0
2018-Apr-22 17:55N 33°45' W 118°13'0 0.0
2018-Apr-22 17:25N 33°45' W 118°13'0 0.0
2018-Apr-22 16:13N 33°45' W 118°13'0 0.0
2018-Apr-22 15:58N 33°45' W 118°13'0 0.0
2018-Apr-22 15:25N 33°45' W 118°13'0 0.0
2018-Apr-22 14:58N 33°45' W 118°13'  

Dump ship's entire track history